Logo AVAMET
Benvolgut visitant, si us plau, ingressa Recuperar contrasenya
AVAMET paisatges

Villamalur

Dades diàries. Acumulats / Últims 30 dies disponibles

Data Temperatura (°C) Humitat rel. (%) Pressió rel. (hPa) Vent (km/h) Precipitació
Mínima Mitjana Màxima Amplitud
tèrmica
Mínima Mitjana Màxima Mínima Mitjana Màxima Predom. Mitjana Ràfega
màxima
Total
(mm)
Índex-n
Mínima Mitjana Màxima Mínima Mitjana Màxima n
0 a 1
P0 max
mm 5'
Dades mensuals acumulades fins l'últim dia disponible
10/2020 5,6 10,4 14,9 14,9 14,6 20,6 27,1 21,5 27 64 97 987 1.013 1.022   7,1 64,4 6,6
Dades anuals acumulades fins l'últim dia disponible
2020 0,9 11,4 22,3 15,8 5,6 20,5 33,1 32,2 0 70 99 0 995 1.032   7,2 109,4 571,5
Últims 30 dies disponibles
21-10-2020 13,0     17,5     23,9 10,9 39 73 97 1.006 1.009 1.011 S 5,1 33,8 0,0
20-10-2020 12,2     14,6     16,7 4,5 84 91 96 1.009 1.014 1.017 NNE 3,4 27,4 0,0
19-10-2020 7,8     13,4     19,6 11,8 49 82 97 1.017 1.019 1.020 SW 4,2 24,1 0,4
18-10-2020 8,2     12,8     18,3 10,1 40 71 95 1.018 1.019 1.020 SW 6,0 30,6 0,0
17-10-2020 5,7     10,9     18,1 12,4 37 74 92 1.014 1.016 1.018 SW 4,3 33,8 0,0
16-10-2020 5,6     9,8     14,6 9,0 37 57 81 1.014 1.015 1.017 SW 6,9 45,1 0,0
15-10-2020 7,9     11,8     16,4 8,5 34 50 62 1.010 1.012 1.015 SW 11,1 45,1 0,0
14-10-2020 10,9     13,9     17,7 6,8 29 57 89 1.005 1.007 1.010 SW 7,1 49,9 0,0
13-10-2020 12,7     16,7     23,2 10,5 35 57 91 1.008 1.012 1.017 SW 6,6 37,0 0,0
12-10-2020 10,0     13,6     18,9 8,9 32 50 63 1.016 1.018 1.020 SW 8,0 41,8 0,0
11-10-2020 10,8     14,2     19,2 8,4 27 48 68 1.017 1.019 1.020 SW 11,3 56,3 0,0
10-10-2020 13,4     16,2     21,2 7,8 64 87 97 1.018 1.019 1.021 SW 3,2 25,7 0,2
09-10-2020 13,9     17,6     21,7 7,8 70 86 94 1.018 1.019 1.021 SW 6,6 29,0 0,0
08-10-2020 12,8     17,7     24,7 11,9 53 77 93 1.019 1.021 1.022 SW 5,3 25,7 0,0
07-10-2020 14,9     20,9     26,7 11,8 36 53 71 1.017 1.018 1.021 SW 6,3 35,4 0,0
06-10-2020 11,3     17,9     25,2 13,9 38 52 63 1.017 1.018 1.019 SW 5,8 29,0 0,0
05-10-2020 9,6     13,8     19,0 9,4 37 55 71 1.009 1.013 1.019 SW 5,8 33,8 0,0
04-10-2020 7,2     13,4     20,1 12,9 37 54 71 1.003 1.006 1.009 SW 8,5 33,8 0,0
03-10-2020 9,2     13,4     19,8 10,6 32 49 63 996 1.002 1.007 SW 9,7 51,5 0,0
02-10-2020 8,7     14,5     19,6 10,9 49 65 94 987 993 1.002 SW 17,5 64,4 6,0
01-10-2020 13,3     19,3     27,1 13,8 27 59 94 1.002 1.006 1.011 SW 6,9 33,8 0,0
30-09-2020 11,2     16,3     21,2 10,0 61 83 93 1.011 1.013 1.016 SW 6,9 30,6 0,0
29-09-2020 10,7     15,4     21,4 10,7 0 0 0 0 0 0 SW 6,4 32,2 0,0
28-09-2020 10,6     15,1     20,7 10,1 0 0 0 0 0 0 SW 7,6 30,6 0,0
27-09-2020 13,8     17,2     22,1 8,3 0 0 0 0 0 0 SW 11,6 48,3 0,0
26-09-2020 11,1     15,7     21,6 10,5 0 0 0 0 0 0 SW 10,0 43,5 0,0
25-09-2020 14,3     17,1     19,7 5,4 0 0 0 0 0 0 SW 11,1 59,5 0,0
24-09-2020 16,8     20,7     24,6 7,8 0 0 0 0 0 0 SW 9,0 41,8 0,0
23-09-2020 15,7     19,9     26,3 10,6 43 67 92 1.008 1.010 1.011 SW 5,3 29,0 0,0
22-09-2020 13,7     17,8     24,1 10,4 55 85 95 1.009 1.011 1.013 SW 5,6 33,8 0,0
Últims 13 mesos disponibles
09/2020 10,7 15,5 19,7 20,0 21,1 25,2 29,6 18,9 0 55 87 0 778 1.021 SW 6,7 43,5 43,4
08/2020 11,1 18,0 22,3 22,7 21,8 27,8 33,1 22,0 53 70 88 1.002 1.011 1.017 SW 7,6 45,1 15,0
07/2020 14,2 17,4 20,4 22,3 23,4 27,1 32,1 17,9 41 71 90 1.009 1.014 1.018 SW 7,6 45,1 4,6
06/2020 10,8 14,2 17,1 18,8 17,7 23,5 27,9 17,1 43 72 93 1.000 1.011 1.018 SW 7,9 77,2 53,8
05/2020 8,8 12,6 16,8 17,3 13,8 22,2 27,3 18,5 50 70 90 1.002 1.014 1.024 SW 7,4 53,1 24,8
04/2020 4,2 8,2 13,2 11,8 11,0 16,3 22,6 18,4 50 80 97 1.002 1.013 1.024 SW 5,7 45,1 105,5
03/2020 1,4 6,8 13,8 10,2 5,8 13,9 22,0 20,6 47 75 98 1.002 1.014 1.025 SW 8,5 80,5 175,6
02/2020 2,4 7,7 13,0 12,0 10,7 17,0 23,8 21,4 30 67 88 1.010 1.023 1.030 SW 5,6 49,9 0,6
01/2020 0,9 4,2 10,8 8,1 5,6 12,3 19,0 18,1 53 75 97 1.016 1.023 1.030 SW 7,1 109,4 125,7
12/2019 1,6 7,2 12,8 10,6 7,7 14,3 21,7 20,1 41 71 97 998 1.016 1.031 SW 8,0 78,9 116,8
11/2019 1,3 7,9 15,8 11,3 10,2 15,5 23,7 22,4 49 60 83 994 1.007 1.015 SW 9,3 72,4 4,0
10/2019 6,5 12,4 16,5 16,3 11,7 20,8 29,9 23,4 47 72 92 1.004 1.014 1.019 SW 5,6 64,4 30,0
09/2019 11,6 15,6 18,8 19,5 17,3 23,9 27,8 16,2 49 76 90 1.007 1.015 1.024 SW 7,0 83,7 78,0
Tots els anys disponibles
2019 -0,9 10,4 21,3 14,8 6,2 19,5 37,6 38,5 22 66 97 989 1.014 1.032 SW 7,9 99,8 547,0
2018 -1,8 10,4 22,5 14,7 3,8 19,3 34,4 36,2 SW 7,6 83,7 834,0
2017 -3,1 10,3 21,9 14,7 3,9 19,6 33,1 36,2 SW 7,6 86,9 385,4
2016
Temperatura (°C)
Humitat relativa (%)
Velocitat del vent i ràfega màxima (km/h)
Direcció del vent (°)
Pressió (hPa)
Precipitació (mm)
Nota sobre les dades: s'avisa a l'usuari de la provisionalitat i no oficialitat d'aquestes dades
Logo AVAMET blanc
Web allotjada a Sollutia
Llicència de Creative CommonsLa web d'AVAMET i els seus continguts estan subjectes a una llicència de
Reconeixement - No Comercial - Compartir igual
Últimes estacions: Sueca - Mareny de Barraquetes (Inforatge), La Vilavella - Centre (Ajuntament Soci), Alfondeguilla (Soci), Santa Magdalena de Polpís (Soci),  Benafigos (Aj. Soci), Carlet - Ajuntament (Inforatge), Montroi (Inforatge), Bronchales (Limítrofe-Terol/Aj. Soci), Sueca - Muntanyeta dels Sants (Inforatge), Vilamarxant - Ajuntament (Aj. Soci/Inforatge) - - -